Time;durP1;ratioP1;P1;durP2;ratioP2;P2;SDS_P1;SDS_P2;PMS_P1;PMS_P2;Temp;Humidity;BMP_temperature;BMP_pressure;BME280_temperature;BME280_humidity;BME280_pressure;Samples;Min_cycle;Max_cycle;Signal;HPM_P1;HPM_P2
2022/11/10 00:02:12;;;;;;;;;;;19.70;70.80;;;;;;5068252;28;1039;-69
2022/11/10 00:04:37;;;;;;;;;;;19.70;70.80;;;;;;5065230;28;862;-69
2022/11/10 00:07:03;;;;;;;;;;;19.70;70.90;;;;;;5064044;28;1273;-68
2022/11/10 00:09:28;;;;;;;;;;;19.70;70.90;;;;;;5063948;28;1061;-68
2022/11/10 00:11:54;;;;;;;;;;;19.70;70.80;;;;;;5060415;28;929;-69
2022/11/10 00:17:03;;;;;;;;;;;19.70;70.80;;;;;;5063055;28;1358;-68
2022/11/10 00:19:29;;;;;;;;;;;19.70;70.80;;;;;;5067092;28;1906;-69
2022/11/10 00:21:55;;;;;;;;;;;19.70;70.90;;;;;;5044944;28;874;-68
2022/11/10 00:24:20;;;;;;;;;;;19.70;70.80;;;;;;5063364;28;866;-69
2022/11/10 00:26:46;;;;;;;;;;;19.80;70.90;;;;;;5066563;28;1355;-68
2022/11/10 00:29:11;;;;;;;;;;;19.80;70.90;;;;;;5066982;28;879;-68
2022/11/10 00:31:37;;;;;;;;;;;19.70;70.90;;;;;;5064442;28;1367;-69
2022/11/10 00:34:02;;;;;;;;;;;19.70;70.90;;;;;;5064340;28;993;-68
2022/11/10 00:36:28;;;;;;;;;;;19.70;70.90;;;;;;5052445;28;898;-68
2022/11/10 00:38:53;;;;;;;;;;;19.70;70.90;;;;;;5049398;28;1951;-69
2022/11/10 00:41:19;;;;;;;;;;;19.70;70.90;;;;;;5062108;28;822;-69
2022/11/10 00:43:44;;;;;;;;;;;19.70;70.90;;;;;;5049434;28;1491;-68
2022/11/10 00:46:09;;;;;;;;;;;19.70;70.90;;;;;;5062534;28;1064;-68
2022/11/10 00:48:35;;;;;;;;;;;19.70;70.90;;;;;;5061477;28;1235;-69
2022/11/10 00:51:00;;;;;;;;;;;19.70;70.90;;;;;;5045499;28;1282;-68
2022/11/10 00:53:26;;;;;;;;;;;19.70;70.90;;;;;;5063866;28;934;-69
2022/11/10 00:55:51;;;;;;;;;;;19.70;70.90;;;;;;5061263;28;878;-69
2022/11/10 00:58:17;;;;;;;;;;;19.70;70.90;;;;;;5062734;28;1898;-68
2022/11/10 01:00:42;;;;;;;;;;;19.70;70.90;;;;;;5062853;28;906;-69
2022/11/10 01:03:11;;;;;;;;;;;19.70;70.90;;;;;;5065088;28;870;-69
2022/11/10 01:05:37;;;;;;;;;;;19.70;70.90;;;;;;5040982;28;910;-69
2022/11/10 01:08:02;;;;;;;;;;;19.70;70.90;;;;;;5050900;28;1357;-68
2022/11/10 01:10:28;;;;;;;;;;;19.70;71.70;;;;;;5049218;28;1058;-68
2022/11/10 01:12:54;;;;;;;;;;;19.70;70.90;;;;;;5059191;28;812;-68
2022/11/10 01:15:19;;;;;;;;;;;19.70;70.90;;;;;;5064085;28;890;-69
2022/11/10 01:17:45;;;;;;;;;;;19.70;70.90;;;;;;5063587;28;1281;-68
2022/11/10 01:20:10;;;;;;;;;;;19.70;70.90;;;;;;5064573;28;1910;-69
2022/11/10 01:22:36;;;;;;;;;;;19.70;70.90;;;;;;5062954;28;1021;-68
2022/11/10 01:25:01;;;;;;;;;;;19.70;70.90;;;;;;5062347;28;796;-69
2022/11/10 01:27:27;;;;;;;;;;;19.70;71.00;;;;;;5063658;28;1259;-68
2022/11/10 01:29:52;;;;;;;;;;;19.70;71.00;;;;;;5051947;28;832;-68
2022/11/10 01:32:18;;;;;;;;;;;19.70;71.00;;;;;;5063226;28;970;-68
2022/11/10 01:34:43;;;;;;;;;;;19.70;71.00;;;;;;5060464;28;929;-68
2022/11/10 01:37:10;;;;;;;;;;;19.70;70.90;;;;;;5050904;28;1377;-68
2022/11/10 01:39:35;;;;;;;;;;;19.70;71.00;;;;;;5050059;28;1898;-69
2022/11/10 01:42:01;;;;;;;;;;;19.70;71.00;;;;;;5060655;28;888;-69
2022/11/10 01:44:26;;;;;;;;;;;19.70;71.00;;;;;;5039680;28;977;-68
2022/11/10 01:46:52;;;;;;;;;;;19.70;71.00;;;;;;5042903;28;1283;-69
2022/11/10 01:49:18;;;;;;;;;;;19.70;71.00;;;;;;5028709;28;1408;-68
2022/11/10 01:51:47;;;;;;;;;;;19.70;71.00;;;;;;5044489;28;1089;-69
2022/11/10 01:54:15;;;;;;;;;;;19.70;71.00;;;;;;5043899;28;947;-68
2022/11/10 01:56:42;;;;;;;;;;;19.70;71.00;;;;;;5049351;28;883;-68
2022/11/10 01:59:09;;;;;;;;;;;19.70;71.00;;;;;;5043956;28;1897;-69
2022/11/10 02:01:34;;;;;;;;;;;19.70;71.00;;;;;;5062499;28;1294;-68
2022/11/10 02:04:07;;;;;;;;;;;19.70;71.00;;;;;;5065655;28;803;-68
2022/11/10 02:06:34;;;;;;;;;;;19.70;71.00;;;;;;5061844;28;801;-69
2022/11/10 02:09:00;;;;;;;;;;;19.70;71.00;;;;;;5045399;28;1381;-69
2022/11/10 02:11:26;;;;;;;;;;;19.70;71.00;;;;;;5065274;28;815;-68
2022/11/10 02:13:51;;;;;;;;;;;19.70;71.00;;;;;;5061035;28;903;-69
2022/11/10 02:16:17;;;;;;;;;;;19.70;71.00;;;;;;5049198;28;1159;-69
2022/11/10 02:18:42;;;;;;;;;;;19.70;71.00;;;;;;5044702;28;1978;-68
2022/11/10 02:21:08;;;;;;;;;;;19.70;71.00;;;;;;5063499;28;882;-68
2022/11/10 02:23:33;;;;;;;;;;;19.70;71.00;;;;;;5057714;28;1220;-69
2022/11/10 02:25:59;;;;;;;;;;;19.70;71.00;;;;;;5050787;28;1396;-68
2022/11/10 02:28:25;;;;;;;;;;;19.70;71.00;;;;;;5061403;28;1263;-69
2022/11/10 02:30:50;;;;;;;;;;;19.70;71.00;;;;;;5047570;28;950;-68
2022/11/10 02:33:18;;;;;;;;;;;19.70;71.00;;;;;;5065961;28;1372;-68
2022/11/10 02:35:44;;;;;;;;;;;19.70;71.00;;;;;;5063715;28;802;-68
2022/11/10 02:38:10;;;;;;;;;;;19.70;71.00;;;;;;5045353;28;1902;-68
2022/11/10 02:40:35;;;;;;;;;;;19.70;71.10;;;;;;5045521;28;907;-69
2022/11/10 02:43:01;;;;;;;;;;;19.70;71.10;;;;;;5050160;28;1207;-68
2022/11/10 02:45:27;;;;;;;;;;;19.70;71.10;;;;;;5063111;28;863;-69
2022/11/10 02:47:52;;;;;;;;;;;19.70;71.10;;;;;;5064328;28;1262;-69
2022/11/10 02:50:18;;;;;;;;;;;19.70;71.10;;;;;;5062028;28;958;-68
2022/11/10 02:52:43;;;;;;;;;;;19.70;71.00;;;;;;5062489;28;1018;-68
2022/11/10 02:55:08;;;;;;;;;;;19.70;71.10;;;;;;5054911;28;871;-69
2022/11/10 02:57:34;;;;;;;;;;;19.70;71.10;;;;;;5067850;28;1385;-69
2022/11/10 02:59:59;;;;;;;;;;;19.70;71.80;;;;;;5052554;28;1890;-69
2022/11/10 03:02:25;;;;;;;;;;;19.70;71.10;;;;;;5065542;28;1346;-69
2022/11/10 03:04:50;;;;;;;;;;;19.70;71.10;;;;;;5053339;28;839;-69
2022/11/10 03:07:16;;;;;;;;;;;19.70;71.00;;;;;;5047209;28;1273;-69
2022/11/10 03:09:41;;;;;;;;;;;19.70;71.10;;;;;;5069220;28;998;-68
2022/11/10 03:12:07;;;;;;;;;;;19.70;71.10;;;;;;5064777;28;832;-69
2022/11/10 03:14:32;;;;;;;;;;;19.70;71.10;;;;;;5066581;28;871;-69
2022/11/10 03:16:58;;;;;;;;;;;19.70;71.10;;;;;;5065167;28;1346;-69
2022/11/10 03:19:23;;;;;;;;;;;19.70;71.10;;;;;;5064603;28;1922;-68
2022/11/10 03:21:49;;;;;;;;;;;19.70;71.10;;;;;;5067313;28;1311;-69
2022/11/10 03:24:14;;;;;;;;;;;19.70;71.10;;;;;;5067875;28;1375;-68
2022/11/10 03:26:39;;;;;;;;;;;19.70;71.10;;;;;;5048801;28;1607;-68
2022/11/10 03:29:05;;;;;;;;;;;19.70;71.10;;;;;;5066420;28;1315;-68
2022/11/10 03:31:30;;;;;;;;;;;19.70;71.10;;;;;;5069425;28;1366;-68
2022/11/10 03:33:56;;;;;;;;;;;19.70;71.10;;;;;;5067860;28;1307;-68
2022/11/10 03:36:21;;;;;;;;;;;19.70;71.20;;;;;;5066601;28;1354;-69
2022/11/10 03:38:47;;;;;;;;;;;19.70;71.10;;;;;;5067318;28;1926;-68
2022/11/10 03:41:12;;;;;;;;;;;19.70;72.00;;;;;;5067514;28;1245;-70
2022/11/10 03:43:38;;;;;;;;;;;19.70;71.20;;;;;;5070101;28;926;-69
2022/11/10 03:46:03;;;;;;;;;;;19.70;71.20;;;;;;5062079;28;1037;-69
2022/11/10 03:48:29;;;;;;;;;;;19.70;71.20;;;;;;5066531;28;1236;-69
2022/11/10 03:50:54;;;;;;;;;;;19.70;71.20;;;;;;5063412;28;825;-69
2022/11/10 03:53:20;;;;;;;;;;;19.70;71.20;;;;;;5064527;28;944;-69
2022/11/10 03:55:45;;;;;;;;;;;19.70;71.20;;;;;;5068850;28;921;-68
2022/11/10 03:58:10;;;;;;;;;;;19.70;71.20;;;;;;5062042;28;1875;-68
2022/11/10 04:00:36;;;;;;;;;;;19.70;71.20;;;;;;5063386;28;871;-67
2022/11/10 04:03:01;;;;;;;;;;;19.70;71.20;;;;;;5067271;28;1254;-67
2022/11/10 04:10:55;;;;;;;;;;;19.70;71.20;;;;;;5066189;28;776;-67
2022/11/10 04:16:05;;;;;;;;;;;19.70;71.20;;;;;;5054953;28;793;-68
2022/11/10 04:18:30;;;;;;;;;;;19.70;71.90;;;;;;5042819;28;2001;-68
2022/11/10 04:20:57;;;;;;;;;;;19.70;71.20;;;;;;5062207;28;828;-68
2022/11/10 04:23:25;;;;;;;;;;;19.70;71.20;;;;;;5067658;28;856;-68
2022/11/10 04:26:28;;;;;;;;;;;19.70;71.20;;;;;;5046004;28;892;-68
2022/11/10 04:28:57;;;;;;;;;;;19.70;71.20;;;;;;5056195;28;1291;-68
2022/11/10 04:31:23;;;;;;;;;;;19.60;71.20;;;;;;5068013;28;1433;-68
2022/11/10 04:33:49;;;;;;;;;;;19.70;71.20;;;;;;5052920;28;933;-68
2022/11/10 04:36:15;;;;;;;;;;;19.70;71.20;;;;;;5047892;28;998;-68
2022/11/10 04:38:41;;;;;;;;;;;19.70;71.20;;;;;;5058393;28;1968;-69
2022/11/10 04:41:06;;;;;;;;;;;19.70;71.20;;;;;;5064558;28;821;-68
2022/11/10 04:43:32;;;;;;;;;;;19.70;71.20;;;;;;5068743;28;903;-69
2022/11/10 04:45:57;;;;;;;;;;;19.70;71.20;;;;;;5064571;28;820;-69
2022/11/10 04:48:23;;;;;;;;;;;19.70;71.20;;;;;;5066294;28;1245;-69
2022/11/10 04:50:49;;;;;;;;;;;19.60;71.20;;;;;;5046562;28;874;-69
2022/11/10 04:53:14;;;;;;;;;;;19.60;71.10;;;;;;5064299;28;926;-69
2022/11/10 04:55:40;;;;;;;;;;;19.70;71.20;;;;;;5065713;28;837;-69
2022/11/10 04:58:06;;;;;;;;;;;19.70;71.20;;;;;;5063287;28;1241;-69
2022/11/10 05:00:31;;;;;;;;;;;19.70;71.20;;;;;;5050948;28;1951;-68
2022/11/10 05:02:58;;;;;;;;;;;19.70;71.20;;;;;;5066899;28;1288;-69
2022/11/10 05:05:23;;;;;;;;;;;19.70;71.20;;;;;;5051102;28;881;-68
2022/11/10 05:07:49;;;;;;;;;;;19.70;71.20;;;;;;5051654;28;1358;-69
2022/11/10 05:10:14;;;;;;;;;;;19.70;71.20;;;;;;5069018;28;1192;-69
2022/11/10 05:12:40;;;;;;;;;;;19.70;71.20;;;;;;5049063;28;827;-69
2022/11/10 05:15:06;;;;;;;;;;;19.70;71.20;;;;;;5064054;28;1006;-69
2022/11/10 05:17:31;;;;;;;;;;;19.70;71.10;;;;;;5065743;28;1306;-69
2022/11/10 05:19:56;;;;;;;;;;;19.70;71.10;;;;;;5064039;28;1910;-69
2022/11/10 05:22:22;;;;;;;;;;;19.80;71.10;;;;;;5061945;28;1326;-69
2022/11/10 05:24:47;;;;;;;;;;;19.70;70.90;;;;;;5059713;28;800;-70
2022/11/10 05:27:13;;;;;;;;;;;19.80;70.90;;;;;;5059735;28;1261;-71
2022/11/10 05:29:38;;;;;;;;;;;19.80;70.90;;;;;;5065980;28;868;-70
2022/11/10 05:32:04;;;;;;;;;;;19.80;70.70;;;;;;5064967;28;1426;-70
2022/11/10 05:34:29;;;;;;;;;;;19.80;70.70;;;;;;5062825;28;1450;-70
2022/11/10 05:36:55;;;;;;;;;;;19.80;70.60;;;;;;5062551;28;1366;-70
2022/11/10 05:39:20;;;;;;;;;;;19.90;70.50;;;;;;5061853;28;1905;-71
2022/11/10 05:41:45;;;;;;;;;;;19.90;70.50;;;;;;5064117;28;808;-69
2022/11/10 05:44:11;;;;;;;;;;;19.90;70.40;;;;;;5064173;28;808;-68
2022/11/10 05:46:36;;;;;;;;;;;19.90;70.30;;;;;;5046943;28;879;-70
2022/11/10 05:49:02;;;;;;;;;;;19.90;70.30;;;;;;5062849;28;1328;-69
2022/11/10 05:51:27;;;;;;;;;;;20.00;70.30;;;;;;5050916;28;855;-68
2022/11/10 05:53:53;;;;;;;;;;;20.00;70.20;;;;;;5050079;28;1131;-69
2022/11/10 05:56:18;;;;;;;;;;;20.00;70.10;;;;;;5062021;28;827;-69
2022/11/10 05:58:44;;;;;;;;;;;20.00;70.10;;;;;;5063912;28;1930;-68
2022/11/10 06:01:09;;;;;;;;;;;20.00;70.00;;;;;;5048650;28;880;-68
2022/11/10 06:03:34;;;;;;;;;;;20.00;70.00;;;;;;5063333;28;950;-68
2022/11/10 06:06:00;;;;;;;;;;;20.00;69.90;;;;;;5062844;28;1005;-69
2022/11/10 06:08:25;;;;;;;;;;;20.00;69.90;;;;;;5060949;28;1248;-69
2022/11/10 06:10:51;;;;;;;;;;;20.00;69.90;;;;;;5063318;28;895;-70
2022/11/10 06:13:16;;;;;;;;;;;20.00;69.90;;;;;;5064740;28;1056;-68
2022/11/10 06:15:42;;;;;;;;;;;20.00;69.80;;;;;;5062527;28;845;-68
2022/11/10 06:18:07;;;;;;;;;;;20.10;69.90;;;;;;5049638;28;1322;-69
2022/11/10 06:20:33;;;;;;;;;;;20.10;69.90;;;;;;5062130;28;1961;-69
2022/11/10 06:23:02;;;;;;;;;;;20.00;69.80;;;;;;5061513;28;1196;-69
2022/11/10 06:25:28;;;;;;;;;;;20.10;69.90;;;;;;5049916;28;832;-69
2022/11/10 06:27:54;;;;;;;;;;;20.10;69.80;;;;;;5045651;28;1251;-69
2022/11/10 06:30:19;;;;;;;;;;;20.10;69.80;;;;;;5044263;28;2049;-68
2022/11/10 06:32:45;;;;;;;;;;;20.10;69.80;;;;;;5064552;28;1320;-68
2022/11/10 06:35:10;;;;;;;;;;;20.10;69.80;;;;;;5065156;28;1510;-70
2022/11/10 06:37:37;;;;;;;;;;;20.10;69.80;;;;;;5059342;28;1347;-72
2022/11/10 06:40:04;;;;;;;;;;;20.10;69.70;;;;;;5038149;28;1894;-72
2022/11/10 06:42:29;;;;;;;;;;;20.10;69.70;;;;;;5060233;28;930;-66
2022/11/10 06:44:55;;;;;;;;;;;20.10;69.70;;;;;;5043358;28;1005;-66
2022/11/10 06:47:20;;;;;;;;;;;20.10;69.70;;;;;;5059156;28;1275;-66
2022/11/10 06:49:46;;;;;;;;;;;20.10;69.60;;;;;;5058877;28;892;-67
2022/11/10 06:52:11;;;;;;;;;;;20.10;69.70;;;;;;5050573;28;1073;-70
2022/11/10 06:54:36;;;;;;;;;;;20.10;69.70;;;;;;5061779;28;843;-72
2022/11/10 06:57:02;;;;;;;;;;;20.10;69.60;;;;;;5062153;28;1356;-70
2022/11/10 06:59:27;;;;;;;;;;;20.10;69.70;;;;;;5061136;28;1965;-68
2022/11/10 07:01:54;;;;;;;;;;;20.10;69.60;;;;;;5061914;28;1291;-70
2022/11/10 07:04:20;;;;;;;;;;;20.10;69.60;;;;;;5062642;28;884;-71
2022/11/10 07:06:46;;;;;;;;;;;20.10;69.60;;;;;;5061948;28;879;-71
2022/11/10 07:09:12;;;;;;;;;;;20.10;69.60;;;;;;5062745;28;1301;-69
2022/11/10 07:11:37;;;;;;;;;;;20.10;70.30;;;;;;5062577;28;820;-69
2022/11/10 07:14:02;;;;;;;;;;;20.10;69.60;;;;;;5049464;28;845;-70
2022/11/10 07:16:28;;;;;;;;;;;20.10;69.60;;;;;;5058660;28;1009;-68
2022/11/10 07:18:53;;;;;;;;;;;20.10;69.60;;;;;;5063397;28;1973;-69
2022/11/10 07:21:19;;;;;;;;;;;20.10;69.70;;;;;;5061196;28;950;-70
2022/11/10 07:23:45;;;;;;;;;;;20.10;69.60;;;;;;5060476;28;1314;-71
2022/11/10 07:26:11;;;;;;;;;;;20.10;69.60;;;;;;5063584;28;1259;-71
2022/11/10 07:28:36;;;;;;;;;;;20.10;69.60;;;;;;5064327;28;1361;-71
2022/11/10 07:31:02;;;;;;;;;;;20.10;69.60;;;;;;5069667;28;1039;-70
2022/11/10 07:33:27;;;;;;;;;;;20.10;69.60;;;;;;5052320;28;1602;-70
2022/11/10 07:35:56;;;;;;;;;;;20.10;69.60;;;;;;5066184;28;950;-71
2022/11/10 07:38:22;;;;;;;;;;;20.10;69.60;;;;;;5063560;28;1902;-70
2022/11/10 07:40:53;;;;;;;;;;;20.10;69.60;;;;;;5048180;28;823;-70
2022/11/10 07:43:19;;;;;;;;;;;20.10;69.60;;;;;;5065534;28;835;-70
2022/11/10 07:45:44;;;;;;;;;;;20.10;69.60;;;;;;5064459;28;772;-71
2022/11/10 07:48:10;;;;;;;;;;;20.10;69.60;;;;;;5053410;28;1342;-71
2022/11/10 07:50:35;;;;;;;;;;;20.10;69.60;;;;;;5064920;28;887;-70
2022/11/10 07:53:05;;;;;;;;;;;20.10;69.60;;;;;;5065646;28;801;-70
2022/11/10 07:55:30;;;;;;;;;;;20.10;69.60;;;;;;5049410;28;843;-69
2022/11/10 07:57:57;;;;;;;;;;;20.10;69.70;;;;;;5065350;28;1346;-68
2022/11/10 08:00:22;;;;;;;;;;;20.10;69.70;;;;;;5047267;28;1965;-69
2022/11/10 08:02:48;;;;;;;;;;;20.10;69.70;;;;;;5066243;28;1355;-68
2022/11/10 08:05:13;;;;;;;;;;;20.10;69.70;;;;;;5068061;28;879;-69
2022/11/10 08:07:39;;;;;;;;;;;20.10;69.70;;;;;;5065875;28;1380;-69
2022/11/10 08:10:05;;;;;;;;;;;20.10;69.70;;;;;;5065390;28;910;-69
2022/11/10 08:12:31;;;;;;;;;;;20.10;69.70;;;;;;5067879;28;847;-69
2022/11/10 08:14:56;;;;;;;;;;;20.10;69.70;;;;;;5061979;28;887;-70
2022/11/10 08:17:22;;;;;;;;;;;20.10;69.80;;;;;;5064832;28;1263;-69
2022/11/10 08:19:47;;;;;;;;;;;20.10;69.80;;;;;;5065356;28;1969;-69
2022/11/10 08:22:13;;;;;;;;;;;20.10;69.70;;;;;;5063949;28;782;-69
2022/11/10 08:24:38;;;;;;;;;;;20.10;69.80;;;;;;5066960;28;1636;-69
2022/11/10 08:27:04;;;;;;;;;;;20.10;69.80;;;;;;5065442;28;1294;-70
2022/11/10 08:29:29;;;;;;;;;;;20.10;69.80;;;;;;5067729;28;854;-70
2022/11/10 08:31:55;;;;;;;;;;;20.10;69.80;;;;;;5067276;28;1390;-70
2022/11/10 08:34:21;;;;;;;;;;;20.10;69.80;;;;;;5068136;28;1001;-69
2022/11/10 08:36:46;;;;;;;;;;;20.10;69.80;;;;;;5063327;28;814;-69
2022/11/10 08:39:12;;;;;;;;;;;20.10;69.80;;;;;;5060837;28;1959;-69
2022/11/10 08:41:38;;;;;;;;;;;20.10;69.80;;;;;;5066298;28;812;-69
2022/11/10 08:44:04;;;;;;;;;;;20.00;69.90;;;;;;5062040;28;863;-69
2022/11/10 08:46:29;;;;;;;;;;;20.10;69.80;;;;;;5031252;28;887;-69
2022/11/10 08:48:54;;;;;;;;;;;20.10;69.80;;;;;;5064200;28;1275;-69
2022/11/10 08:51:21;;;;;;;;;;;20.10;69.90;;;;;;5052392;28;821;-69
2022/11/10 08:53:46;;;;;;;;;;;20.10;69.80;;;;;;5065609;28;867;-69
2022/11/10 08:56:12;;;;;;;;;;;20.10;69.80;;;;;;5061253;28;1555;-69
2022/11/10 08:58:37;;;;;;;;;;;20.10;69.90;;;;;;5061882;28;1890;-69
2022/11/10 09:01:10;;;;;;;;;;;20.10;69.90;;;;;;5064913;28;878;-68
2022/11/10 09:03:35;;;;;;;;;;;20.10;69.90;;;;;;5064884;28;1047;-68
2022/11/10 09:06:01;;;;;;;;;;;20.10;69.90;;;;;;5064719;28;1135;-69
2022/11/10 09:08:27;;;;;;;;;;;20.10;69.80;;;;;;5062070;28;1295;-69
2022/11/10 09:10:52;;;;;;;;;;;20.10;69.90;;;;;;5062151;28;927;-69
2022/11/10 09:13:20;;;;;;;;;;;20.10;69.80;;;;;;5064196;28;915;-69
2022/11/10 09:15:45;;;;;;;;;;;20.10;69.80;;;;;;5063921;28;914;-68
2022/11/10 09:18:11;;;;;;;;;;;20.10;69.80;;;;;;5064795;28;1327;-69
2022/11/10 09:20:36;;;;;;;;;;;20.10;69.80;;;;;;5063897;28;1917;-69
2022/11/10 09:23:09;;;;;;;;;;;20.10;69.70;;;;;;5046987;28;923;-69
2022/11/10 09:25:34;;;;;;;;;;;20.10;69.80;;;;;;5045980;28;871;-70
2022/11/10 09:28:00;;;;;;;;;;;20.10;69.80;;;;;;5061590;28;1536;-70
2022/11/10 09:30:25;;;;;;;;;;;20.10;69.80;;;;;;5062055;28;843;-69
2022/11/10 09:32:54;;;;;;;;;;;20.10;69.80;;;;;;5062394;28;1418;-69
2022/11/10 09:35:20;;;;;;;;;;;20.10;69.80;;;;;;5043551;28;958;-68
2022/11/10 09:37:45;;;;;;;;;;;20.10;69.70;;;;;;5060539;28;1430;-70
2022/11/10 09:40:15;;;;;;;;;;;20.10;69.80;;;;;;5060757;28;1959;-71
2022/11/10 09:42:41;;;;;;;;;;;20.10;69.80;;;;;;5050775;28;851;-71
2022/11/10 09:45:12;;;;;;;;;;;20.10;69.80;;;;;;5051363;28;922;-70
2022/11/10 09:47:57;;;;;;;;;;;20.10;69.80;;;;;;5045571;28;1366;-71
2022/11/10 09:50:41;;;;;;;;;;;20.10;69.90;;;;;;5047303;28;796;-71
2022/11/10 09:53:18;;;;;;;;;;;20.10;69.80;;;;;;5063231;28;835;-71
2022/11/10 09:55:44;;;;;;;;;;;20.10;69.90;;;;;;5045471;28;1017;-70
2022/11/10 09:58:12;;;;;;;;;;;20.10;69.80;;;;;;5061760;28;1270;-68
2022/11/10 10:00:37;;;;;;;;;;;20.10;69.90;;;;;;5050584;28;1966;-69
2022/11/10 10:03:03;;;;;;;;;;;20.10;69.90;;;;;;5049271;28;1315;-69
2022/11/10 10:06:01;;;;;;;;;;;20.00;69.90;;;;;;5058533;28;1017;-69
2022/11/10 10:08:32;;;;;;;;;;;20.10;69.90;;;;;;5043325;28;1276;-70
2022/11/10 10:11:14;;;;;;;;;;;20.10;70.00;;;;;;5061112;28;878;-69
2022/11/10 10:13:56;;;;;;;;;;;20.10;70.00;;;;;;5048339;28;876;-70
2022/11/10 10:16:47;;;;;;;;;;;20.10;70.00;;;;;;5050524;28;886;-69
2022/11/10 10:19:28;;;;;;;;;;;20.10;70.00;;;;;;5056202;28;1898;-69
2022/11/10 10:22:14;;;;;;;;;;;20.00;70.00;;;;;;5049853;28;1022;-70
2022/11/10 10:24:39;;;;;;;;;;;20.00;70.00;;;;;;5011220;28;1188;-69
2022/11/10 10:27:07;;;;;;;;;;;20.00;70.00;;;;;;5060812;28;1243;-70
2022/11/10 10:29:40;;;;;;;;;;;20.00;70.10;;;;;;5049036;28;895;-70
2022/11/10 10:32:08;;;;;;;;;;;20.00;70.10;;;;;;5042130;28;1412;-69
2022/11/10 10:34:34;;;;;;;;;;;20.00;70.10;;;;;;5063396;28;801;-70
2022/11/10 10:36:59;;;;;;;;;;;20.00;70.10;;;;;;5047416;28;1359;-69
2022/11/10 10:39:29;;;;;;;;;;;20.00;70.20;;;;;;5061525;28;1963;-69
2022/11/10 10:41:54;;;;;;;;;;;20.00;70.20;;;;;;5062157;28;898;-69
2022/11/10 10:44:20;;;;;;;;;;;20.00;70.20;;;;;;5062704;28;1006;-69
2022/11/10 10:46:47;;;;;;;;;;;20.00;70.20;;;;;;5061951;28;850;-71
2022/11/10 10:49:14;;;;;;;;;;;20.00;70.20;;;;;;5049546;28;1391;-70
2022/11/10 10:51:39;;;;;;;;;;;20.00;70.30;;;;;;5062558;28;853;-72
2022/11/10 10:54:08;;;;;;;;;;;20.00;70.30;;;;;;5064674;28;816;-69
2022/11/10 10:56:34;;;;;;;;;;;20.00;70.30;;;;;;5049718;28;935;-70
2022/11/10 10:59:00;;;;;;;;;;;20.00;70.30;;;;;;5050315;28;1957;-69
2022/11/10 11:01:32;;;;;;;;;;;20.00;70.30;;;;;;5045803;28;1165;-70
2022/11/10 11:03:58;;;;;;;;;;;20.00;70.40;;;;;;5049308;28;883;-69
2022/11/10 11:06:33;;;;;;;;;;;20.00;70.40;;;;;;5068296;28;887;-71
2022/11/10 11:09:17;;;;;;;;;;;20.00;70.40;;;;;;5048829;28;1278;-70
2022/11/10 11:11:42;;;;;;;;;;;19.90;70.40;;;;;;5064906;28;870;-70
2022/11/10 11:14:12;;;;;;;;;;;19.90;70.40;;;;;;5047863;28;871;-69
2022/11/10 11:16:58;;;;;;;;;;;19.90;70.40;;;;;;5047195;28;917;-70
2022/11/10 11:19:30;;;;;;;;;;;19.90;70.40;;;;;;5067565;28;2011;-69
2022/11/10 11:21:59;;;;;;;;;;;19.90;70.40;;;;;;5068829;28;889;-69
2022/11/10 11:24:37;;;;;;;;;;;19.90;70.40;;;;;;5066940;28;815;-69
2022/11/10 11:27:14;;;;;;;;;;;19.90;70.50;;;;;;5063408;28;1389;-69
2022/11/10 11:29:40;;;;;;;;;;;19.90;70.50;;;;;;5064126;28;895;-69
2022/11/10 11:32:24;;;;;;;;;;;19.90;70.50;;;;;;5067195;28;1383;-70
2022/11/10 11:34:52;;;;;;;;;;;19.90;70.50;;;;;;5064517;28;1053;-69
2022/11/10 11:37:20;;;;;;;;;;;19.90;70.50;;;;;;5062466;28;1351;-71
2022/11/10 11:39:53;;;;;;;;;;;19.90;70.60;;;;;;5047783;28;2427;-70
2022/11/10 11:42:38;;;;;;;;;;;19.90;70.60;;;;;;5044881;28;855;-70
2022/11/10 11:45:20;;;;;;;;;;;19.90;70.60;;;;;;5067811;28;914;-70
2022/11/10 11:47:48;;;;;;;;;;;19.90;70.60;;;;;;5050431;28;1259;-69
2022/11/10 11:50:19;;;;;;;;;;;19.90;70.70;;;;;;5064736;28;839;-69
2022/11/10 11:52:54;;;;;;;;;;;19.90;70.70;;;;;;5063995;28;879;-69
2022/11/10 11:55:38;;;;;;;;;;;19.90;70.70;;;;;;5063399;28;799;-70
2022/11/10 11:58:15;;;;;;;;;;;19.90;70.70;;;;;;5060960;28;1634;-69
2022/11/10 12:00:43;;;;;;;;;;;19.90;70.70;;;;;;5065148;28;1926;-69
2022/11/10 12:03:28;;;;;;;;;;;19.80;70.70;;;;;;5052794;28;1032;-69
2022/11/10 12:05:56;;;;;;;;;;;19.80;70.70;;;;;;5061893;28;927;-70
2022/11/10 12:08:25;;;;;;;;;;;19.80;70.80;;;;;;5064959;28;1762;-70
2022/11/10 12:11:13;;;;;;;;;;;19.80;71.50;;;;;;5053082;28;1022;-71
2022/11/10 12:13:55;;;;;;;;;;;19.80;70.80;;;;;;5053783;28;972;-70
2022/11/10 12:16:22;;;;;;;;;;;19.80;70.80;;;;;;5050589;28;939;-70
2022/11/10 12:19:10;;;;;;;;;;;19.80;70.80;;;;;;5043918;28;1985;-71
2022/11/10 12:21:42;;;;;;;;;;;19.80;70.80;;;;;;5063595;28;1493;-68
2022/11/10 12:24:17;;;;;;;;;;;19.80;70.80;;;;;;5048927;28;1069;-70
2022/11/10 12:26:45;;;;;;;;;;;19.80;70.80;;;;;;5049784;28;950;-70
2022/11/10 12:29:23;;;;;;;;;;;19.80;70.80;;;;;;5063654;28;1893;-70
2022/11/10 12:31:49;;;;;;;;;;;19.80;70.80;;;;;;5065137;28;1440;-71
2022/11/10 12:34:23;;;;;;;;;;;19.80;70.90;;;;;;5067553;28;1022;-71
2022/11/10 12:36:49;;;;;;;;;;;19.80;70.90;;;;;;5061337;28;927;-71
2022/11/10 12:39:20;;;;;;;;;;;19.80;70.90;;;;;;5051870;28;1894;-70
2022/11/10 12:41:49;;;;;;;;;;;19.80;70.90;;;;;;5067834;28;820;-71
2022/11/10 12:44:27;;;;;;;;;;;19.80;70.90;;;;;;5049849;28;906;-71
2022/11/10 12:46:54;;;;;;;;;;;19.80;71.00;;;;;;5065147;28;1268;-70
2022/11/10 12:49:35;;;;;;;;;;;19.80;71.00;;;;;;5048510;28;1072;-69
2022/11/10 12:52:03;;;;;;;;;;;19.80;70.90;;;;;;5048534;28;1316;-70
2022/11/10 12:54:29;;;;;;;;;;;19.80;70.90;;;;;;5050654;28;1665;-71
2022/11/10 12:56:56;;;;;;;;;;;19.80;71.00;;;;;;5052435;28;1388;-69
2022/11/10 12:59:25;;;;;;;;;;;19.80;71.00;;;;;;5066173;28;1898;-70
2022/11/10 13:01:51;;;;;;;;;;;19.80;71.00;;;;;;5067696;28;1902;-70
2022/11/10 13:04:17;;;;;;;;;;;19.80;71.00;;;;;;5049123;28;1405;-70
2022/11/10 13:06:52;;;;;;;;;;;19.80;71.00;;;;;;5049413;28;1314;-70
2022/11/10 13:09:31;;;;;;;;;;;19.80;71.00;;;;;;5068536;28;1432;-70
2022/11/10 13:12:06;;;;;;;;;;;19.80;71.00;;;;;;5047193;28;845;-70
2022/11/10 13:14:32;;;;;;;;;;;19.80;71.00;;;;;;5064614;28;1482;-70
2022/11/10 13:16:57;;;;;;;;;;;19.80;71.00;;;;;;5047496;28;1302;-71
2022/11/10 13:19:23;;;;;;;;;;;19.80;71.00;;;;;;5048740;28;1977;-70
2022/11/10 13:21:51;;;;;;;;;;;19.80;71.10;;;;;;5064134;28;1267;-69
2022/11/10 13:24:19;;;;;;;;;;;19.80;71.10;;;;;;5064637;28;1379;-68
2022/11/10 13:26:46;;;;;;;;;;;19.80;71.10;;;;;;5056965;28;1318;-70
2022/11/10 13:29:20;;;;;;;;;;;19.80;71.10;;;;;;5060797;28;1278;-69
2022/11/10 13:31:49;;;;;;;;;;;19.80;71.10;;;;;;5055196;28;1389;-70
2022/11/10 13:34:18;;;;;;;;;;;19.80;71.10;;;;;;5047650;28;1545;-70
2022/11/10 13:36:44;;;;;;;;;;;19.80;71.10;;;;;;5059748;28;1946;-69
2022/11/10 13:39:19;;;;;;;;;;;19.80;71.20;;;;;;5064768;28;1983;-69
2022/11/10 13:41:52;;;;;;;;;;;19.80;71.10;;;;;;5061768;28;872;-69
2022/11/10 13:44:22;;;;;;;;;;;19.70;71.10;;;;;;5045272;28;918;-70
2022/11/10 13:47:03;;;;;;;;;;;19.70;71.10;;;;;;5043636;28;892;-70
2022/11/10 13:49:31;;;;;;;;;;;19.80;71.10;;;;;;5065106;28;908;-68
2022/11/10 13:52:15;;;;;;;;;;;19.80;71.20;;;;;;5048365;28;823;-69
2022/11/10 13:54:44;;;;;;;;;;;19.80;71.20;;;;;;5066349;28;1051;-69
2022/11/10 13:57:21;;;;;;;;;;;19.70;71.10;;;;;;5044116;28;1351;-70
2022/11/10 13:59:48;;;;;;;;;;;19.70;71.10;;;;;;5053346;28;1967;-70
2022/11/10 14:02:32;;;;;;;;;;;19.70;71.10;;;;;;5049108;28;1293;-69
2022/11/10 14:04:57;;;;;;;;;;;19.70;71.10;;;;;;5060402;28;829;-70
2022/11/10 14:07:23;;;;;;;;;;;19.70;71.10;;;;;;5048778;28;1259;-69
2022/11/10 14:09:51;;;;;;;;;;;19.70;71.20;;;;;;5046088;28;1021;-70
2022/11/10 14:12:35;;;;;;;;;;;19.70;71.20;;;;;;5046327;28;811;-69
2022/11/10 14:15:20;;;;;;;;;;;19.70;71.20;;;;;;5062681;28;950;-69
2022/11/10 14:17:46;;;;;;;;;;;19.70;71.20;;;;;;5060372;28;1286;-69
2022/11/10 14:20:23;;;;;;;;;;;19.70;71.20;;;;;;5064016;28;1917;-69
2022/11/10 14:22:49;;;;;;;;;;;19.70;71.20;;;;;;5063636;28;803;-69
2022/11/10 14:25:25;;;;;;;;;;;19.70;71.20;;;;;;5041376;28;907;-69
2022/11/10 14:27:50;;;;;;;;;;;19.70;71.20;;;;;;5045809;28;1357;-69
2022/11/10 14:30:23;;;;;;;;;;;19.80;71.30;;;;;;5061796;28;1379;-69
2022/11/10 14:33:01;;;;;;;;;;;19.70;71.20;;;;;;5059765;28;1349;-69
2022/11/10 14:35:30;;;;;;;;;;;19.70;71.30;;;;;;5062790;28;883;-69
2022/11/10 14:37:56;;;;;;;;;;;19.70;71.30;;;;;;5061065;28;1283;-68
2022/11/10 14:40:21;;;;;;;;;;;19.70;71.30;;;;;;5044490;28;1973;-69
2022/11/10 14:42:47;;;;;;;;;;;19.70;71.30;;;;;;5061084;28;1194;-69
2022/11/10 14:45:20;;;;;;;;;;;19.70;71.30;;;;;;5061754;28;911;-69
2022/11/10 14:47:52;;;;;;;;;;;19.70;71.30;;;;;;5046176;28;1652;-69
2022/11/10 14:50:18;;;;;;;;;;;19.70;71.30;;;;;;5064427;28;955;-69
2022/11/10 14:52:45;;;;;;;;;;;19.70;71.40;;;;;;5064587;28;892;-69